sensor_id;sensor_type;location;lat;lon;timestamp;P1;durP1;ratioP1;P2;durP2;ratioP2
75090;SDS011;63674;48.048;8.306;2022-12-05T00:02:24;13.02;;;4.43;;
75090;SDS011;63674;48.048;8.306;2022-12-05T00:04:53;14.73;;;4.03;;
75090;SDS011;63674;48.048;8.306;2022-12-05T00:07:21;7.90;;;3.03;;
75090;SDS011;63674;48.048;8.306;2022-12-05T00:09:50;9.52;;;3.25;;
75090;SDS011;63674;48.048;8.306;2022-12-05T00:12:20;10.32;;;3.50;;
75090;SDS011;63674;48.048;8.306;2022-12-05T00:14:49;9.10;;;3.22;;
75090;SDS011;63674;48.048;8.306;2022-12-05T00:17:18;9.10;;;3.03;;
75090;SDS011;63674;48.048;8.306;2022-12-05T00:19:46;9.13;;;3.42;;
75090;SDS011;63674;48.048;8.306;2022-12-05T00:22:22;8.55;;;2.97;;
75090;SDS011;63674;48.048;8.306;2022-12-05T00:24:52;8.55;;;3.15;;
75090;SDS011;63674;48.048;8.306;2022-12-05T00:27:22;8.07;;;3.22;;
75090;SDS011;63674;48.048;8.306;2022-12-05T00:29:51;8.10;;;2.80;;
75090;SDS011;63674;48.048;8.306;2022-12-05T00:32:20;8.15;;;2.58;;
75090;SDS011;63674;48.048;8.306;2022-12-05T00:34:48;7.38;;;2.83;;
75090;SDS011;63674;48.048;8.306;2022-12-05T00:37:17;8.38;;;3.15;;
75090;SDS011;63674;48.048;8.306;2022-12-05T00:39:46;7.15;;;2.70;;
75090;SDS011;63674;48.048;8.306;2022-12-05T00:42:15;7.32;;;2.60;;
75090;SDS011;63674;48.048;8.306;2022-12-05T00:44:45;7.53;;;2.65;;
75090;SDS011;63674;48.048;8.306;2022-12-05T00:47:16;6.93;;;2.80;;
75090;SDS011;63674;48.048;8.306;2022-12-05T00:49:45;7.78;;;2.83;;
75090;SDS011;63674;48.048;8.306;2022-12-05T00:52:14;7.78;;;3.28;;
75090;SDS011;63674;48.048;8.306;2022-12-05T00:54:43;6.88;;;2.55;;
75090;SDS011;63674;48.048;8.306;2022-12-05T00:57:12;8.75;;;2.92;;
75090;SDS011;63674;48.048;8.306;2022-12-05T00:59:40;7.93;;;3.00;;
75090;SDS011;63674;48.048;8.306;2022-12-05T01:02:11;9.88;;;4.30;;
75090;SDS011;63674;48.048;8.306;2022-12-05T01:04:39;10.73;;;3.70;;
75090;SDS011;63674;48.048;8.306;2022-12-05T01:07:08;8.10;;;3.35;;
75090;SDS011;63674;48.048;8.306;2022-12-05T01:09:37;7.70;;;2.70;;
75090;SDS011;63674;48.048;8.306;2022-12-05T01:12:06;8.23;;;2.78;;
75090;SDS011;63674;48.048;8.306;2022-12-05T01:14:35;7.22;;;2.50;;
75090;SDS011;63674;48.048;8.306;2022-12-05T01:17:04;7.20;;;2.42;;
75090;SDS011;63674;48.048;8.306;2022-12-05T01:19:34;8.18;;;2.80;;
75090;SDS011;63674;48.048;8.306;2022-12-05T01:22:03;7.97;;;2.65;;
75090;SDS011;63674;48.048;8.306;2022-12-05T01:24:31;8.43;;;2.60;;
75090;SDS011;63674;48.048;8.306;2022-12-05T01:27:00;9.35;;;2.90;;
75090;SDS011;63674;48.048;8.306;2022-12-05T01:29:29;11.15;;;3.80;;
75090;SDS011;63674;48.048;8.306;2022-12-05T01:31:58;6.55;;;2.38;;
75090;SDS011;63674;48.048;8.306;2022-12-05T01:34:27;6.90;;;2.63;;
75090;SDS011;63674;48.048;8.306;2022-12-05T01:36:57;6.20;;;2.10;;
75090;SDS011;63674;48.048;8.306;2022-12-05T01:39:26;6.65;;;2.40;;
75090;SDS011;63674;48.048;8.306;2022-12-05T01:41:55;7.53;;;2.60;;
75090;SDS011;63674;48.048;8.306;2022-12-05T01:47:33;8.88;;;2.45;;
75090;SDS011;63674;48.048;8.306;2022-12-05T01:50:04;6.55;;;2.22;;
75090;SDS011;63674;48.048;8.306;2022-12-05T01:52:36;5.57;;;2.05;;
75090;SDS011;63674;48.048;8.306;2022-12-05T01:55:08;6.13;;;2.25;;
75090;SDS011;63674;48.048;8.306;2022-12-05T01:57:40;7.38;;;2.33;;
75090;SDS011;63674;48.048;8.306;2022-12-05T02:00:11;6.55;;;2.58;;
75090;SDS011;63674;48.048;8.306;2022-12-05T02:02:43;6.13;;;2.10;;
75090;SDS011;63674;48.048;8.306;2022-12-05T02:05:19;7.05;;;2.28;;
75090;SDS011;63674;48.048;8.306;2022-12-05T02:07:52;6.60;;;2.47;;
75090;SDS011;63674;48.048;8.306;2022-12-05T02:10:22;6.78;;;2.20;;
75090;SDS011;63674;48.048;8.306;2022-12-05T02:12:51;6.45;;;2.22;;
75090;SDS011;63674;48.048;8.306;2022-12-05T02:15:22;6.07;;;2.35;;
75090;SDS011;63674;48.048;8.306;2022-12-05T02:18:06;5.40;;;1.83;;
75090;SDS011;63674;48.048;8.306;2022-12-05T02:20:55;5.72;;;2.03;;
75090;SDS011;63674;48.048;8.306;2022-12-05T02:23:52;6.40;;;1.80;;
75090;SDS011;63674;48.048;8.306;2022-12-05T02:26:47;6.55;;;1.80;;
75090;SDS011;63674;48.048;8.306;2022-12-05T02:29:44;5.53;;;1.80;;
75090;SDS011;63674;48.048;8.306;2022-12-05T02:32:46;5.25;;;1.73;;
75090;SDS011;63674;48.048;8.306;2022-12-05T02:35:30;5.28;;;1.88;;
75090;SDS011;63674;48.048;8.306;2022-12-05T02:38:11;5.22;;;1.90;;
75090;SDS011;63674;48.048;8.306;2022-12-05T02:40:53;5.68;;;1.45;;
75090;SDS011;63674;48.048;8.306;2022-12-05T02:43:31;5.25;;;1.60;;
75090;SDS011;63674;48.048;8.306;2022-12-05T02:46:07;5.70;;;1.58;;
75090;SDS011;63674;48.048;8.306;2022-12-05T02:48:39;5.43;;;1.70;;
75090;SDS011;63674;48.048;8.306;2022-12-05T02:51:12;4.55;;;1.40;;
75090;SDS011;63674;48.048;8.306;2022-12-05T02:53:46;4.05;;;1.13;;
75090;SDS011;63674;48.048;8.306;2022-12-05T02:56:17;4.90;;;1.20;;
75090;SDS011;63674;48.048;8.306;2022-12-05T02:58:48;3.58;;;0.90;;
75090;SDS011;63674;48.048;8.306;2022-12-05T03:01:22;4.78;;;1.13;;
75090;SDS011;63674;48.048;8.306;2022-12-05T03:03:54;4.00;;;0.90;;
75090;SDS011;63674;48.048;8.306;2022-12-05T03:06:26;3.75;;;0.90;;
75090;SDS011;63674;48.048;8.306;2022-12-05T03:08:58;3.47;;;0.80;;
75090;SDS011;63674;48.048;8.306;2022-12-05T03:11:32;4.10;;;0.90;;
75090;SDS011;63674;48.048;8.306;2022-12-05T03:14:05;3.30;;;0.80;;
75090;SDS011;63674;48.048;8.306;2022-12-05T03:16:42;3.60;;;0.80;;
75090;SDS011;63674;48.048;8.306;2022-12-05T03:19:16;4.18;;;1.20;;
75090;SDS011;63674;48.048;8.306;2022-12-05T03:21:51;3.63;;;0.90;;
75090;SDS011;63674;48.048;8.306;2022-12-05T03:24:25;3.60;;;0.80;;
75090;SDS011;63674;48.048;8.306;2022-12-05T03:26:56;4.25;;;1.20;;
75090;SDS011;63674;48.048;8.306;2022-12-05T03:29:34;3.70;;;0.93;;
75090;SDS011;63674;48.048;8.306;2022-12-05T03:32:09;3.72;;;0.90;;
75090;SDS011;63674;48.048;8.306;2022-12-05T03:34:47;4.50;;;0.80;;
75090;SDS011;63674;48.048;8.306;2022-12-05T03:37:26;3.35;;;0.75;;
75090;SDS011;63674;48.048;8.306;2022-12-05T03:40:07;3.75;;;0.85;;
75090;SDS011;63674;48.048;8.306;2022-12-05T03:42:48;3.67;;;0.82;;
75090;SDS011;63674;48.048;8.306;2022-12-05T03:45:24;3.53;;;0.80;;
75090;SDS011;63674;48.048;8.306;2022-12-05T03:48:03;3.88;;;1.00;;
75090;SDS011;63674;48.048;8.306;2022-12-05T03:50:38;3.63;;;0.80;;
75090;SDS011;63674;48.048;8.306;2022-12-05T03:53:12;3.88;;;1.10;;
75090;SDS011;63674;48.048;8.306;2022-12-05T03:55:48;3.50;;;0.90;;
75090;SDS011;63674;48.048;8.306;2022-12-05T03:58:25;3.33;;;0.70;;
75090;SDS011;63674;48.048;8.306;2022-12-05T04:00:58;4.03;;;0.95;;
75090;SDS011;63674;48.048;8.306;2022-12-05T04:03:32;3.80;;;0.88;;
75090;SDS011;63674;48.048;8.306;2022-12-05T04:06:15;3.70;;;0.90;;
75090;SDS011;63674;48.048;8.306;2022-12-05T04:08:49;3.53;;;0.80;;
75090;SDS011;63674;48.048;8.306;2022-12-05T04:11:25;3.60;;;0.90;;
75090;SDS011;63674;48.048;8.306;2022-12-05T04:13:58;3.85;;;1.02;;
75090;SDS011;63674;48.048;8.306;2022-12-05T04:16:35;4.20;;;1.02;;
75090;SDS011;63674;48.048;8.306;2022-12-05T04:19:26;3.75;;;1.00;;
75090;SDS011;63674;48.048;8.306;2022-12-05T04:22:20;3.60;;;0.95;;
75090;SDS011;63674;48.048;8.306;2022-12-05T04:24:50;5.03;;;0.98;;
75090;SDS011;63674;48.048;8.306;2022-12-05T04:27:39;3.88;;;1.08;;
75090;SDS011;63674;48.048;8.306;2022-12-05T04:30:17;4.68;;;1.50;;
75090;SDS011;63674;48.048;8.306;2022-12-05T04:32:49;5.90;;;1.30;;
75090;SDS011;63674;48.048;8.306;2022-12-05T04:35:29;5.68;;;1.00;;
75090;SDS011;63674;48.048;8.306;2022-12-05T04:38:03;4.88;;;1.20;;
75090;SDS011;63674;48.048;8.306;2022-12-05T04:40:36;4.85;;;1.40;;
75090;SDS011;63674;48.048;8.306;2022-12-05T04:43:08;4.40;;;1.25;;
75090;SDS011;63674;48.048;8.306;2022-12-05T04:45:39;5.60;;;2.00;;
75090;SDS011;63674;48.048;8.306;2022-12-05T04:48:11;5.35;;;1.70;;
75090;SDS011;63674;48.048;8.306;2022-12-05T04:50:45;5.47;;;2.10;;
75090;SDS011;63674;48.048;8.306;2022-12-05T04:53:15;5.20;;;2.10;;
75090;SDS011;63674;48.048;8.306;2022-12-05T04:55:45;5.25;;;1.80;;
75090;SDS011;63674;48.048;8.306;2022-12-05T04:58:18;5.93;;;2.00;;
75090;SDS011;63674;48.048;8.306;2022-12-05T05:00:51;4.70;;;1.40;;
75090;SDS011;63674;48.048;8.306;2022-12-05T05:03:27;5.43;;;2.30;;
75090;SDS011;63674;48.048;8.306;2022-12-05T05:06:02;6.07;;;2.10;;
75090;SDS011;63674;48.048;8.306;2022-12-05T05:08:31;57.15;;;17.38;;
75090;SDS011;63674;48.048;8.306;2022-12-05T05:11:03;24.38;;;7.35;;
75090;SDS011;63674;48.048;8.306;2022-12-05T05:13:38;9.65;;;2.80;;
75090;SDS011;63674;48.048;8.306;2022-12-05T05:16:06;8.45;;;2.75;;
75090;SDS011;63674;48.048;8.306;2022-12-05T05:18:39;6.70;;;1.88;;
75090;SDS011;63674;48.048;8.306;2022-12-05T05:21:14;4.93;;;1.67;;
75090;SDS011;63674;48.048;8.306;2022-12-05T05:23:46;4.10;;;1.38;;
75090;SDS011;63674;48.048;8.306;2022-12-05T05:26:15;8.50;;;2.42;;
75090;SDS011;63674;48.048;8.306;2022-12-05T05:28:45;6.10;;;2.58;;
75090;SDS011;63674;48.048;8.306;2022-12-05T05:31:14;6.80;;;2.53;;
75090;SDS011;63674;48.048;8.306;2022-12-05T05:33:46;5.10;;;1.63;;
75090;SDS011;63674;48.048;8.306;2022-12-05T05:36:18;7.18;;;2.60;;
75090;SDS011;63674;48.048;8.306;2022-12-05T05:38:49;11.13;;;2.92;;
75090;SDS011;63674;48.048;8.306;2022-12-05T05:41:20;6.93;;;2.70;;
75090;SDS011;63674;48.048;8.306;2022-12-05T05:43:51;5.50;;;1.90;;
75090;SDS011;63674;48.048;8.306;2022-12-05T05:46:23;5.53;;;1.73;;
75090;SDS011;63674;48.048;8.306;2022-12-05T05:48:54;5.90;;;1.67;;
75090;SDS011;63674;48.048;8.306;2022-12-05T05:51:25;5.03;;;1.88;;
75090;SDS011;63674;48.048;8.306;2022-12-05T05:53:56;6.00;;;2.00;;
75090;SDS011;63674;48.048;8.306;2022-12-05T05:56:26;7.45;;;2.42;;
75090;SDS011;63674;48.048;8.306;2022-12-05T05:58:56;5.90;;;2.38;;
75090;SDS011;63674;48.048;8.306;2022-12-05T06:01:27;5.65;;;1.80;;
75090;SDS011;63674;48.048;8.306;2022-12-05T06:03:56;5.75;;;1.75;;
75090;SDS011;63674;48.048;8.306;2022-12-05T06:06:27;5.55;;;1.90;;
75090;SDS011;63674;48.048;8.306;2022-12-05T06:08:55;5.95;;;2.20;;
75090;SDS011;63674;48.048;8.306;2022-12-05T06:11:25;5.30;;;2.00;;
75090;SDS011;63674;48.048;8.306;2022-12-05T06:13:55;5.80;;;2.00;;
75090;SDS011;63674;48.048;8.306;2022-12-05T06:16:26;5.07;;;1.63;;
75090;SDS011;63674;48.048;8.306;2022-12-05T06:18:56;6.85;;;2.95;;
75090;SDS011;63674;48.048;8.306;2022-12-05T06:21:27;10.23;;;6.15;;
75090;SDS011;63674;48.048;8.306;2022-12-05T06:23:55;6.85;;;3.22;;
75090;SDS011;63674;48.048;8.306;2022-12-05T06:26:24;6.18;;;2.60;;
75090;SDS011;63674;48.048;8.306;2022-12-05T06:28:53;5.85;;;2.67;;
75090;SDS011;63674;48.048;8.306;2022-12-05T06:31:22;7.43;;;3.30;;
75090;SDS011;63674;48.048;8.306;2022-12-05T06:33:58;7.43;;;3.00;;
75090;SDS011;63674;48.048;8.306;2022-12-05T06:36:29;8.85;;;3.67;;
75090;SDS011;63674;48.048;8.306;2022-12-05T06:38:58;8.50;;;3.30;;
75090;SDS011;63674;48.048;8.306;2022-12-05T06:41:27;6.22;;;2.15;;
75090;SDS011;63674;48.048;8.306;2022-12-05T06:43:56;8.80;;;3.40;;
75090;SDS011;63674;48.048;8.306;2022-12-05T06:46:28;9.32;;;3.67;;
75090;SDS011;63674;48.048;8.306;2022-12-05T06:48:57;10.27;;;4.20;;
75090;SDS011;63674;48.048;8.306;2022-12-05T06:51:26;10.45;;;4.50;;
75090;SDS011;63674;48.048;8.306;2022-12-05T06:53:56;6.70;;;2.75;;
75090;SDS011;63674;48.048;8.306;2022-12-05T06:56:25;8.43;;;3.33;;
75090;SDS011;63674;48.048;8.306;2022-12-05T06:58:54;8.35;;;3.63;;
75090;SDS011;63674;48.048;8.306;2022-12-05T07:01:23;10.90;;;3.72;;
75090;SDS011;63674;48.048;8.306;2022-12-05T07:04:12;8.77;;;3.08;;
75090;SDS011;63674;48.048;8.306;2022-12-05T07:06:43;9.32;;;3.08;;
75090;SDS011;63674;48.048;8.306;2022-12-05T07:09:18;7.50;;;3.00;;
75090;SDS011;63674;48.048;8.306;2022-12-05T07:12:09;8.02;;;3.10;;
75090;SDS011;63674;48.048;8.306;2022-12-05T07:14:39;4.25;;;1.48;;
75090;SDS011;63674;48.048;8.306;2022-12-05T07:17:14;6.43;;;1.70;;
75090;SDS011;63674;48.048;8.306;2022-12-05T07:19:43;5.72;;;1.75;;
75090;SDS011;63674;48.048;8.306;2022-12-05T07:22:14;6.47;;;2.60;;
75090;SDS011;63674;48.048;8.306;2022-12-05T07:24:44;7.30;;;2.45;;
75090;SDS011;63674;48.048;8.306;2022-12-05T07:27:13;10.38;;;4.28;;
75090;SDS011;63674;48.048;8.306;2022-12-05T07:29:50;7.15;;;3.08;;
75090;SDS011;63674;48.048;8.306;2022-12-05T07:32:19;6.97;;;2.95;;
75090;SDS011;63674;48.048;8.306;2022-12-05T07:34:47;7.50;;;2.90;;
75090;SDS011;63674;48.048;8.306;2022-12-05T07:37:21;6.28;;;2.40;;
75090;SDS011;63674;48.048;8.306;2022-12-05T07:39:51;6.80;;;2.30;;
75090;SDS011;63674;48.048;8.306;2022-12-05T07:42:20;10.32;;;2.95;;
75090;SDS011;63674;48.048;8.306;2022-12-05T07:44:49;13.85;;;4.70;;
75090;SDS011;63674;48.048;8.306;2022-12-05T07:47:18;15.02;;;6.05;;
75090;SDS011;63674;48.048;8.306;2022-12-05T07:49:47;8.95;;;3.92;;
75090;SDS011;63674;48.048;8.306;2022-12-05T07:52:16;9.35;;;3.85;;
75090;SDS011;63674;48.048;8.306;2022-12-05T07:54:45;7.35;;;3.00;;
75090;SDS011;63674;48.048;8.306;2022-12-05T07:57:15;7.40;;;3.10;;
75090;SDS011;63674;48.048;8.306;2022-12-05T07:59:44;8.68;;;3.20;;
75090;SDS011;63674;48.048;8.306;2022-12-05T08:02:13;9.20;;;3.35;;
75090;SDS011;63674;48.048;8.306;2022-12-05T08:04:42;7.45;;;3.00;;
75090;SDS011;63674;48.048;8.306;2022-12-05T08:07:11;8.00;;;3.13;;
75090;SDS011;63674;48.048;8.306;2022-12-05T08:09:39;5.72;;;2.58;;
75090;SDS011;63674;48.048;8.306;2022-12-05T08:12:08;6.35;;;2.58;;
75090;SDS011;63674;48.048;8.306;2022-12-05T08:14:38;8.00;;;2.45;;
75090;SDS011;63674;48.048;8.306;2022-12-05T08:17:07;6.97;;;2.60;;
75090;SDS011;63674;48.048;8.306;2022-12-05T08:19:36;9.32;;;4.45;;
75090;SDS011;63674;48.048;8.306;2022-12-05T08:22:05;6.63;;;2.72;;
75090;SDS011;63674;48.048;8.306;2022-12-05T08:24:33;8.13;;;2.50;;
75090;SDS011;63674;48.048;8.306;2022-12-05T08:27:03;5.63;;;2.00;;
75090;SDS011;63674;48.048;8.306;2022-12-05T08:29:32;8.77;;;2.80;;
75090;SDS011;63674;48.048;8.306;2022-12-05T08:32:02;6.22;;;2.80;;
75090;SDS011;63674;48.048;8.306;2022-12-05T08:34:30;9.27;;;2.95;;
75090;SDS011;63674;48.048;8.306;2022-12-05T08:36:59;7.55;;;2.97;;
75090;SDS011;63674;48.048;8.306;2022-12-05T08:39:28;6.65;;;2.90;;
75090;SDS011;63674;48.048;8.306;2022-12-05T08:42:03;6.55;;;2.75;;
75090;SDS011;63674;48.048;8.306;2022-12-05T08:44:33;5.80;;;2.20;;
75090;SDS011;63674;48.048;8.306;2022-12-05T08:47:03;5.35;;;2.00;;
75090;SDS011;63674;48.048;8.306;2022-12-05T08:49:32;6.45;;;2.25;;
75090;SDS011;63674;48.048;8.306;2022-12-05T08:52:01;7.93;;;2.92;;
75090;SDS011;63674;48.048;8.306;2022-12-05T08:54:29;8.43;;;3.28;;
75090;SDS011;63674;48.048;8.306;2022-12-05T08:56:58;9.00;;;3.80;;
75090;SDS011;63674;48.048;8.306;2022-12-05T08:59:27;8.82;;;4.43;;
75090;SDS011;63674;48.048;8.306;2022-12-05T09:01:56;7.95;;;3.20;;
75090;SDS011;63674;48.048;8.306;2022-12-05T09:04:26;7.38;;;3.08;;
75090;SDS011;63674;48.048;8.306;2022-12-05T09:06:55;7.68;;;2.72;;
75090;SDS011;63674;48.048;8.306;2022-12-05T09:09:23;6.40;;;2.85;;
75090;SDS011;63674;48.048;8.306;2022-12-05T09:11:52;9.48;;;2.60;;
75090;SDS011;63674;48.048;8.306;2022-12-05T09:14:23;7.00;;;2.40;;
75090;SDS011;63674;48.048;8.306;2022-12-05T09:16:51;7.57;;;3.25;;
75090;SDS011;63674;48.048;8.306;2022-12-05T09:19:20;7.53;;;3.58;;
75090;SDS011;63674;48.048;8.306;2022-12-05T09:21:51;10.65;;;4.50;;
75090;SDS011;63674;48.048;8.306;2022-12-05T09:24:20;8.90;;;4.20;;
75090;SDS011;63674;48.048;8.306;2022-12-05T09:26:49;8.48;;;4.15;;
75090;SDS011;63674;48.048;8.306;2022-12-05T09:29:19;8.85;;;4.40;;
75090;SDS011;63674;48.048;8.306;2022-12-05T09:31:47;8.85;;;3.80;;
75090;SDS011;63674;48.048;8.306;2022-12-05T09:34:17;10.15;;;4.32;;
75090;SDS011;63674;48.048;8.306;2022-12-05T09:36:46;9.68;;;4.03;;
75090;SDS011;63674;48.048;8.306;2022-12-05T09:39:25;12.18;;;3.75;;
75090;SDS011;63674;48.048;8.306;2022-12-05T09:42:07;11.88;;;4.13;;
75090;SDS011;63674;48.048;8.306;2022-12-05T09:44:50;17.25;;;6.65;;
75090;SDS011;63674;48.048;8.306;2022-12-05T09:47:38;14.65;;;5.60;;
75090;SDS011;63674;48.048;8.306;2022-12-05T09:50:18;7.95;;;2.33;;
75090;SDS011;63674;48.048;8.306;2022-12-05T09:53:01;7.38;;;2.78;;
75090;SDS011;63674;48.048;8.306;2022-12-05T09:55:43;5.00;;;1.90;;
75090;SDS011;63674;48.048;8.306;2022-12-05T09:58:21;5.50;;;1.60;;
75090;SDS011;63674;48.048;8.306;2022-12-05T10:00:58;5.45;;;1.95;;
75090;SDS011;63674;48.048;8.306;2022-12-05T10:03:34;4.93;;;1.88;;
75090;SDS011;63674;48.048;8.306;2022-12-05T10:06:11;4.68;;;1.67;;
75090;SDS011;63674;48.048;8.306;2022-12-05T10:08:54;5.18;;;1.70;;
75090;SDS011;63674;48.048;8.306;2022-12-05T10:11:42;4.80;;;1.50;;
75090;SDS011;63674;48.048;8.306;2022-12-05T10:14:17;4.40;;;1.38;;
75090;SDS011;63674;48.048;8.306;2022-12-05T10:16:58;4.65;;;1.35;;
75090;SDS011;63674;48.048;8.306;2022-12-05T10:19:35;3.83;;;1.20;;
75090;SDS011;63674;48.048;8.306;2022-12-05T10:22:09;5.00;;;1.40;;
75090;SDS011;63674;48.048;8.306;2022-12-05T10:24:46;4.40;;;1.30;;
75090;SDS011;63674;48.048;8.306;2022-12-05T10:27:20;4.40;;;1.20;;
75090;SDS011;63674;48.048;8.306;2022-12-05T10:30:06;5.68;;;1.17;;
75090;SDS011;63674;48.048;8.306;2022-12-05T10:32:45;3.70;;;1.05;;
75090;SDS011;63674;48.048;8.306;2022-12-05T10:35:20;4.45;;;1.25;;
75090;SDS011;63674;48.048;8.306;2022-12-05T10:37:51;4.32;;;1.38;;
75090;SDS011;63674;48.048;8.306;2022-12-05T10:40:22;4.13;;;1.10;;
75090;SDS011;63674;48.048;8.306;2022-12-05T10:42:55;4.95;;;1.58;;
75090;SDS011;63674;48.048;8.306;2022-12-05T10:45:25;3.58;;;1.10;;
75090;SDS011;63674;48.048;8.306;2022-12-05T10:47:54;3.28;;;0.82;;
75090;SDS011;63674;48.048;8.306;2022-12-05T10:50:25;4.35;;;1.30;;
75090;SDS011;63674;48.048;8.306;2022-12-05T10:52:57;3.78;;;1.00;;
75090;SDS011;63674;48.048;8.306;2022-12-05T10:55:30;3.88;;;0.98;;
75090;SDS011;63674;48.048;8.306;2022-12-05T10:58:14;4.95;;;1.13;;
75090;SDS011;63674;48.048;8.306;2022-12-05T11:00:48;4.38;;;1.27;;
75090;SDS011;63674;48.048;8.306;2022-12-05T11:03:23;4.30;;;1.30;;
75090;SDS011;63674;48.048;8.306;2022-12-05T11:05:55;4.63;;;1.42;;
75090;SDS011;63674;48.048;8.306;2022-12-05T11:08:26;4.05;;;1.25;;
75090;SDS011;63674;48.048;8.306;2022-12-05T11:11:19;3.95;;;1.23;;
75090;SDS011;63674;48.048;8.306;2022-12-05T11:13:52;4.05;;;1.33;;
75090;SDS011;63674;48.048;8.306;2022-12-05T11:16:23;3.63;;;0.90;;
75090;SDS011;63674;48.048;8.306;2022-12-05T11:18:56;3.65;;;1.20;;
75090;SDS011;63674;48.048;8.306;2022-12-05T11:21:50;4.35;;;1.40;;
75090;SDS011;63674;48.048;8.306;2022-12-05T11:24:20;4.07;;;1.10;;
75090;SDS011;63674;48.048;8.306;2022-12-05T11:26:51;4.00;;;1.10;;
75090;SDS011;63674;48.048;8.306;2022-12-05T11:29:31;3.90;;;0.95;;
75090;SDS011;63674;48.048;8.306;2022-12-05T11:32:03;4.22;;;1.08;;
75090;SDS011;63674;48.048;8.306;2022-12-05T11:34:36;4.95;;;1.35;;
75090;SDS011;63674;48.048;8.306;2022-12-05T11:37:11;4.20;;;1.20;;
75090;SDS011;63674;48.048;8.306;2022-12-05T11:39:45;4.78;;;1.25;;
75090;SDS011;63674;48.048;8.306;2022-12-05T11:42:15;4.50;;;1.30;;
75090;SDS011;63674;48.048;8.306;2022-12-05T11:45:11;4.65;;;1.48;;
75090;SDS011;63674;48.048;8.306;2022-12-05T11:50:49;3.85;;;1.00;;
75090;SDS011;63674;48.048;8.306;2022-12-05T11:57:20;3.83;;;1.05;;
75090;SDS011;63674;48.048;8.306;2022-12-05T12:00:04;3.97;;;1.30;;
75090;SDS011;63674;48.048;8.306;2022-12-05T12:03:19;3.72;;;1.00;;
75090;SDS011;63674;48.048;8.306;2022-12-05T12:06:08;4.07;;;1.13;;
75090;SDS011;63674;48.048;8.306;2022-12-05T12:08:54;4.05;;;1.23;;
75090;SDS011;63674;48.048;8.306;2022-12-05T12:11:51;4.53;;;1.20;;
75090;SDS011;63674;48.048;8.306;2022-12-05T12:14:30;4.65;;;1.17;;
75090;SDS011;63674;48.048;8.306;2022-12-05T12:17:15;3.85;;;1.00;;
75090;SDS011;63674;48.048;8.306;2022-12-05T12:20:01;7.13;;;1.75;;
75090;SDS011;63674;48.048;8.306;2022-12-05T12:23:02;5.88;;;1.85;;
75090;SDS011;63674;48.048;8.306;2022-12-05T12:25:50;7.28;;;2.22;;
75090;SDS011;63674;48.048;8.306;2022-12-05T12:28:40;4.72;;;1.40;;
75090;SDS011;63674;48.048;8.306;2022-12-05T12:31:39;7.13;;;2.83;;
75090;SDS011;63674;48.048;8.306;2022-12-05T12:34:28;5.28;;;1.98;;
75090;SDS011;63674;48.048;8.306;2022-12-05T12:37:33;8.07;;;4.18;;
75090;SDS011;63674;48.048;8.306;2022-12-05T12:40:12;7.13;;;2.63;;
75090;SDS011;63674;48.048;8.306;2022-12-05T12:42:48;11.35;;;4.50;;
75090;SDS011;63674;48.048;8.306;2022-12-05T12:45:31;8.02;;;2.83;;
75090;SDS011;63674;48.048;8.306;2022-12-05T12:48:23;9.63;;;2.90;;
75090;SDS011;63674;48.048;8.306;2022-12-05T12:51:07;6.75;;;2.30;;
75090;SDS011;63674;48.048;8.306;2022-12-05T12:56:39;5.28;;;2.00;;
75090;SDS011;63674;48.048;8.306;2022-12-05T13:02:14;4.80;;;1.83;;
75090;SDS011;63674;48.048;8.306;2022-12-05T13:04:51;5.43;;;2.15;;
75090;SDS011;63674;48.048;8.306;2022-12-05T13:07:28;5.90;;;2.03;;
75090;SDS011;63674;48.048;8.306;2022-12-05T13:10:02;5.15;;;1.90;;
75090;SDS011;63674;48.048;8.306;2022-12-05T13:12:40;6.30;;;1.70;;
75090;SDS011;63674;48.048;8.306;2022-12-05T13:15:12;4.55;;;1.60;;
75090;SDS011;63674;48.048;8.306;2022-12-05T13:17:44;5.13;;;1.90;;
75090;SDS011;63674;48.048;8.306;2022-12-05T13:20:16;5.50;;;1.80;;
75090;SDS011;63674;48.048;8.306;2022-12-05T13:22:50;6.20;;;2.60;;
75090;SDS011;63674;48.048;8.306;2022-12-05T13:25:21;7.28;;;3.05;;
75090;SDS011;63674;48.048;8.306;2022-12-05T13:27:57;6.40;;;2.20;;
75090;SDS011;63674;48.048;8.306;2022-12-05T13:30:28;6.35;;;2.58;;
75090;SDS011;63674;48.048;8.306;2022-12-05T13:32:58;6.90;;;2.72;;
75090;SDS011;63674;48.048;8.306;2022-12-05T13:35:33;5.70;;;2.00;;
75090;SDS011;63674;48.048;8.306;2022-12-05T13:38:22;4.60;;;1.80;;
75090;SDS011;63674;48.048;8.306;2022-12-05T13:41:13;6.53;;;2.30;;
75090;SDS011;63674;48.048;8.306;2022-12-05T13:44:00;6.95;;;2.00;;
75090;SDS011;63674;48.048;8.306;2022-12-05T13:46:38;6.10;;;1.77;;
75090;SDS011;63674;48.048;8.306;2022-12-05T13:49:13;5.95;;;2.15;;
75090;SDS011;63674;48.048;8.306;2022-12-05T13:51:46;4.63;;;1.63;;
75090;SDS011;63674;48.048;8.306;2022-12-05T13:54:17;5.40;;;2.20;;
75090;SDS011;63674;48.048;8.306;2022-12-05T13:56:50;5.32;;;2.00;;
75090;SDS011;63674;48.048;8.306;2022-12-05T14:02:48;6.05;;;2.00;;
75090;SDS011;63674;48.048;8.306;2022-12-05T14:05:35;5.85;;;2.30;;
75090;SDS011;63674;48.048;8.306;2022-12-05T14:11:22;6.05;;;2.20;;
75090;SDS011;63674;48.048;8.306;2022-12-05T14:13:50;6.32;;;2.20;;
75090;SDS011;63674;48.048;8.306;2022-12-05T14:19:29;8.43;;;3.70;;
75090;SDS011;63674;48.048;8.306;2022-12-05T14:25:40;7.30;;;2.40;;
75090;SDS011;63674;48.048;8.306;2022-12-05T14:28:32;6.97;;;2.80;;
75090;SDS011;63674;48.048;8.306;2022-12-05T14:31:15;6.90;;;3.00;;
75090;SDS011;63674;48.048;8.306;2022-12-05T14:34:03;7.13;;;2.40;;
75090;SDS011;63674;48.048;8.306;2022-12-05T14:36:50;6.20;;;2.15;;
75090;SDS011;63674;48.048;8.306;2022-12-05T14:39:28;5.68;;;1.80;;
75090;SDS011;63674;48.048;8.306;2022-12-05T14:42:02;5.20;;;2.00;;
75090;SDS011;63674;48.048;8.306;2022-12-05T14:44:46;6.22;;;2.60;;
75090;SDS011;63674;48.048;8.306;2022-12-05T14:47:17;8.23;;;3.20;;
75090;SDS011;63674;48.048;8.306;2022-12-05T14:49:54;5.57;;;2.15;;
75090;SDS011;63674;48.048;8.306;2022-12-05T14:52:29;5.85;;;2.30;;
75090;SDS011;63674;48.048;8.306;2022-12-05T14:55:00;6.13;;;2.10;;
75090;SDS011;63674;48.048;8.306;2022-12-05T14:57:37;6.55;;;2.20;;
75090;SDS011;63674;48.048;8.306;2022-12-05T15:00:18;6.35;;;2.28;;
75090;SDS011;63674;48.048;8.306;2022-12-05T15:02:50;7.82;;;2.80;;
75090;SDS011;63674;48.048;8.306;2022-12-05T15:05:21;11.40;;;3.88;;
75090;SDS011;63674;48.048;8.306;2022-12-05T15:07:53;7.57;;;2.60;;
75090;SDS011;63674;48.048;8.306;2022-12-05T15:10:24;9.20;;;3.30;;
75090;SDS011;63674;48.048;8.306;2022-12-05T15:12:59;8.05;;;3.55;;
75090;SDS011;63674;48.048;8.306;2022-12-05T15:15:34;14.02;;;4.50;;
75090;SDS011;63674;48.048;8.306;2022-12-05T15:18:11;8.30;;;3.60;;
75090;SDS011;63674;48.048;8.306;2022-12-05T15:20:48;8.68;;;3.10;;
75090;SDS011;63674;48.048;8.306;2022-12-05T15:23:36;7.10;;;2.50;;
75090;SDS011;63674;48.048;8.306;2022-12-05T15:26:15;6.97;;;2.42;;
75090;SDS011;63674;48.048;8.306;2022-12-05T15:29:08;7.45;;;2.47;;
75090;SDS011;63674;48.048;8.306;2022-12-05T15:31:44;6.80;;;2.63;;
75090;SDS011;63674;48.048;8.306;2022-12-05T15:34:16;7.38;;;3.10;;
75090;SDS011;63674;48.048;8.306;2022-12-05T15:36:50;8.80;;;3.55;;
75090;SDS011;63674;48.048;8.306;2022-12-05T15:39:25;8.32;;;3.60;;
75090;SDS011;63674;48.048;8.306;2022-12-05T15:41:55;8.80;;;4.00;;
75090;SDS011;63674;48.048;8.306;2022-12-05T15:44:26;8.65;;;3.65;;
75090;SDS011;63674;48.048;8.306;2022-12-05T15:47:16;9.13;;;3.92;;
75090;SDS011;63674;48.048;8.306;2022-12-05T15:49:47;7.18;;;2.88;;
75090;SDS011;63674;48.048;8.306;2022-12-05T15:52:21;7.20;;;2.97;;
75090;SDS011;63674;48.048;8.306;2022-12-05T15:54:57;7.38;;;3.05;;
75090;SDS011;63674;48.048;8.306;2022-12-05T15:57:32;7.18;;;3.20;;
75090;SDS011;63674;48.048;8.306;2022-12-05T16:00:11;8.15;;;3.38;;